Home   Weather   Pacific Park   Past weeks
Flag for USA

Past Weather in Pacific Park, California, USA — Yesterday and Last 2 Weeks

Currently: 45 °F. Sunny. (Weather station: McClellan Air Force Base, USA). See more current weather

Past Weather in Pacific Park — Graph

°F

Pacific Park Temperature Yesterday

Maximum temperature yesterday: 66 °F (at 1:55 pm)
Minimum temperature yesterday: 46 °F (at 1:35 am)
Average temperature yesterday: 56 °F

High & Low Weather Summary for the Past Weeks

 TemperatureHumidityPressure
High66 °F (Nov 29, 1:55 pm)100% (Nov 15, 7:15 am)30.43 "Hg (Nov 15, 7:15 am)
Low36 °F (Nov 24, 6:55 am)32% (Nov 24, 12:35 pm)30.02 "Hg (Nov 16, 4:55 pm)
Average52 °F83%30.16 "Hg
* Reported Nov 15 7:15 am — Nov 30 7:15 am, Pacific Park. Weather by CustomWeather, © 2021

Note: Actual official high and low records may vary slightly from our data, if they occured in-between our weather recording intervals... More about our weather records

Pacific Park Weather History for the Previous 24 Hours

Scroll right to see more
 ConditionsComfort  
Time TempWeatherWind HumidityBarometerVisibility
7:15 am
Tue, Nov 30
43 °FFog.No wind100%30.16 "Hg1 mi
6:55 am43 °FFog.No wind100%30.15 "Hg0 mi
6:35 am43 °FFog.No wind100%30.16 "Hg4 mi
6:15 am43 °FQuite cool.No wind100%30.16 "Hg9 mi
5:55 am45 °FFog.No wind100%30.15 "Hg1 mi
5:35 am45 °FClear.No wind93%30.15 "Hg10 mi
5:15 am46 °FClear.No wind93%30.13 "Hg10 mi
4:55 am46 °FClear.No wind93%30.13 "Hg10 mi
4:35 am46 °FClear.3 mph93%30.12 "Hg10 mi
4:15 am46 °FClear.No wind93%30.13 "Hg10 mi
3:55 am45 °FClear.No wind100%30.13 "Hg8 mi
3:35 am46 °FClear.3 mph100%30.13 "Hg10 mi
3:15 am48 °FClear.3 mph94%30.13 "Hg10 mi
2:55 am48 °FClear.No wind94%30.14 "Hg10 mi
2:35 am48 °FClear.5 mph94%30.13 "Hg10 mi
2:15 am48 °FClear.8 mph94%30.13 "Hg10 mi
1:35 am48 °FClear.6 mph94%30.13 "Hg10 mi
1:15 am48 °FClear.5 mph94%30.13 "Hg10 mi
12:55 am48 °FPassing clouds.5 mph94%30.13 "Hg10 mi
12:35 am48 °FPassing clouds.5 mph94%30.14 "Hg10 mi
12:15 am48 °FClear.5 mph94%30.13 "Hg10 mi
11:35 pm
Mon, Nov 29
50 °FClear.6 mph88%30.13 "Hg10 mi
11:15 pm50 °FClear.6 mph88%30.13 "Hg10 mi
10:55 pm48 °FClear.7 mph94%30.13 "Hg10 mi
10:35 pm50 °FClear.6 mph94%30.13 "Hg7 mi
10:15 pm52 °FClear.3 mph94%30.13 "Hg8 mi
9:55 pm52 °FClear.3 mph94%30.13 "Hg7 mi
9:35 pm50 °FClear.3 mph94%30.12 "Hg8 mi
9:15 pm50 °FCool.N/A94%30.12 "HgN/A
8:55 pm52 °FClear.No wind94%30.12 "Hg8 mi
8:35 pm54 °FClear.No wind94%30.12 "Hg10 mi
8:15 pm54 °FClear.3 mph88%30.11 "Hg10 mi
7:55 pm54 °FClear.No wind94%30.11 "Hg9 mi
7:35 pm54 °FClear.No wind94%30.11 "Hg9 mi
7:15 pm52 °FClear.No wind94%30.11 "Hg9 mi
6:55 pm54 °FClear.No wind88%30.11 "Hg10 mi
6:35 pm55 °FClear.No wind88%30.10 "Hg10 mi
6:15 pm55 °FClear.No wind88%30.11 "Hg10 mi
5:55 pm57 °FClear.No wind82%30.10 "Hg9 mi
5:15 pm61 °FClear.No wind72%30.10 "Hg10 mi
4:55 pm61 °FClear.No wind77%30.09 "Hg10 mi
4:35 pm63 °FSunny.5 mph73%30.10 "Hg10 mi
4:15 pm63 °FSunny.5 mph68%30.10 "Hg10 mi
3:55 pm64 °FSunny.5 mph68%30.10 "Hg10 mi
3:35 pm66 °FSunny.No wind64%30.10 "Hg10 mi
3:15 pm66 °FSunny.6 mph64%30.11 "Hg10 mi
2:35 pm66 °FSunny.No wind60%30.11 "Hg10 mi
1:55 pm66 °FSunny.6 mph60%30.13 "Hg10 mi
1:35 pm64 °FSunny.9 mph60%30.14 "Hg10 mi
1:15 pm64 °FSunny.8 mph68%30.14 "Hg10 mi
12:55 pm64 °FSunny.7 mph64%30.15 "Hg10 mi
12:35 pm63 °FMild.No wind68%30.16 "Hg10 mi
12:15 pm63 °FSunny.7 mph64%30.17 "Hg10 mi
11:35 am61 °FSunny.7 mph72%30.19 "Hg10 mi
11:15 am59 °FSunny.7 mph77%30.20 "Hg9 mi
10:55 am57 °FSunny.7 mph77%30.21 "Hg9 mi
10:15 am55 °FSunny.5 mph77%30.22 "Hg10 mi
9:55 am55 °FSunny.7 mph77%30.22 "Hg10 mi
9:35 am55 °FSunny.No wind77%30.21 "Hg10 mi
9:15 am52 °FSunny.No wind82%30.21 "Hg10 mi
8:55 am50 °FSunny.No wind88%30.22 "Hg10 mi
Weather by CustomWeather, © 2021

See weather overview